x

Sentry Shoal (46131) Wave Buoy

1:00 - Fri 2nd Dec 2016 All times are PST. -8 hours from GMT.

  • Sig Wave height 5.9ft
  • Peak Period 6s
  • Wind
    27mph, 34mph gusts
  • Sea Temp 49°f
  • Aire Temp 49°f
  • Sea Pressure 1014.4mb
  • Sentry Shoal
  • Sentry Shoal

More Historic Weather Station data

Upgrade to MSW Pro to gain access to the past 30 days of data for over 8000 Wavebouys and Weather Stations around the globe.

Join Pro

Comparision Forecast

View Surf forecast
   
vie 12/02 1:00 6ft 6s 27 34 mph 1014.4mb 49f 49f
12:00 6ft 6s 25 29 mph 1013.9mb 49f 48f
11:00 7ft 6s 27 34 mph 1013.7mb 49f 48f
10:00 7ft 7s 31 38 mph 1014mb 49f 47f
9:00 7ft 6s 25 31 mph 1014.8mb 49f 48f
8:00 7ft 6s 34 40 mph 1015.1mb 49f 47f
7:00 7.5ft 6s 31 36 mph 1017.1mb 49f 47f
6:00 6ft 6s 31 36 mph 1017.7mb 49f 46f
5:00 6ft 6s 29 36 mph 1019.2mb 49f 46f
4:00 6ft 5s 29 34 mph 1019.4mb 49f 46f
3:00  -   -  27
mph
- - -
2:00 4.5ft 5s 27 31 mph 1021.4mb 49f 45f
1:00 4.5ft 5s 25 31 mph 1022.7mb 49f 45f
12:00 3.5ft 5s 25 29 mph 1023.3mb 49f 45f
jue 12/01 11:00 4ft 5s 22 27 mph 1024mb 49f 44f
10:00 4.5ft 5s 22 27 mph 1024.2mb 49f 44f
9:00 4.5ft 5s 20 25 mph 1023.9mb 49f 45f
8:00 4ft 5s 20 25 mph 1024.1mb 49f 45f
7:00 3.5ft 4s 18 22 mph 1024.3mb 49f 45f
6:00 3.5ft 4s 20 22 mph 1024.1mb 49f 45f
5:00 2.5ft 4s 18 22 mph 1024.3mb 48f 45f
4:00 2.5ft 3s 20 25 mph 1024.3mb 48f 45f
3:00 1.6ft 3s 18 22 mph 1024.4mb 48f 45f
2:00 1.6ft 3s 16 20 mph 1024.1mb 48f 44f
1:00 1.3ft 3s 16 18 mph 1024.1mb 48f 44f
12:00 1ft 2s 11 13 mph 1024.3mb 48f 43f
11:00 0.7ft 2s 11 13 mph 1024.1mb 48f 43f
9:00 0.3ft 5s 2 4 mph 1023.2mb 48f 42f
8:00 0.3ft 5s 2 4 mph 1022.8mb 48f 42f
7:00 0.3ft 5s 7
mph
1022.7mb 48f 42f
6:00 0.3ft 2s 7 9 mph 1022.5mb 48f 42f
5:00 0.3ft 2s 7 9 mph 1021.8mb 48f 42f
4:00 0.3ft 2s 4 7 mph 1021.9mb 48f 43f
3:00 0.7ft 3s 9
mph
1022.1mb 48f 43f
2:00 1ft 3s 9 11 mph 1021.8mb 48f 43f
1:00 1ft 3s 9 11 mph 1021.1mb 48f 45f
12:00 1ft 2s 11 13 mph 1020.4mb 48f 45f
mié 11/30 11:00 1ft 3s 13 16 mph 1020.1mb 48f 46f
10:00 1.3ft 3s 16 18 mph 1019.3mb 49f 46f
9:00 1.6ft 3s 18 22 mph 1018.8mb 49f 46f
8:00 1.6ft 3s 18 22 mph 1018.2mb 49f 46f
7:00 1.6ft 4s 18 22 mph 1017.5mb 49f 47f
6:00 1.6ft 3s 20 27 mph 1017.1mb 49f 46f
5:00 2.5ft 4s 16 18 mph 1016.4mb 49f 47f
4:00 2.5ft 4s 22 27 mph 1015.6mb 49f 48f
2:00 1.3ft 3s 20 25 mph 1014.5mb 49f 49f
1:00 0.7ft 3s 13 18 mph 1013.9mb 49f 48f
12:00 0.7ft 3s 13 16 mph 1013.5mb 49f 47f
11:00 1ft 4s 11 13 mph 1013.2mb 49f 45f
10:00 1.6ft 5s 13 16 mph 1012.7mb 49f 44f
9:00 2.5ft 4s 16 18 mph 1011.7mb 49f 44f
8:00 2.5ft 6s 20 27 mph 1010.1mb 49f 44f
7:00 3ft 5s 18 22 mph 1008.7mb 49f 44f
6:00 3.5ft 6s 9 13 mph 1007.7mb 49f 45f
5:00 3.5ft 5s 18 20 mph 1006.6mb 49f 47f
4:00 3.5ft 5s 18 25 mph 1006.4mb 49f 46f
3:00 4ft 6s 25 31 mph 1006.2mb 49f 47f
2:00 4.5ft 6s 22 27 mph 1006.7mb 49f 46f
1:00 4.5ft 5s 22 25 mph 1006.9mb 49f 46f
12:00  -   -  22
mph
1007.1mb - 47f
mar 11/29 11:00 4.5ft 6s 22 27 mph 1007.5mb 49f 47f
10:00 4.5ft 6s 25 31 mph 1007.8mb 49f 48f
9:00 4.5ft 6s 22 27 mph 1008.7mb 49f 48f
8:00 5ft 5s 25 29 mph 1009.7mb 49f 47f
7:00 5ft 5s 27 31 mph 1009.9mb 49f 47f
6:00 4.5ft 5s 22 27 mph 1011.5mb 49f 47f
5:00 4.5ft 5s 25 29 mph 1012.9mb 49f 47f
4:00 4.5ft 5s 22 29 mph 1014.3mb 49f 47f
3:00 4.5ft 5s 25 29 mph 1015mb 49f 46f
2:00 4ft 5s 20 25 mph 1016.4mb 49f 46f
1:00 3.5ft 5s 25 27 mph 1017.6mb 49f 46f
12:00 3ft 4s 22 25 mph 1018.9mb 49f 46f
11:00 2.5ft 4s 22 25 mph 1019.4mb 49f 46f
10:00 2.5ft 3s 18 20 mph 1020.5mb 49f 46f
9:00 2ft 3s 16 18 mph 1020.4mb 49f 46f
8:00 1.6ft 3s 18 20 mph 1019.9mb 49f 46f
7:00 1.3ft 3s 18 22 mph 1020mb 49f 45f
6:00 1.3ft 3s 16 18 mph 1020.4mb 49f 44f
5:00 1ft 3s 16 18 mph 1020.6mb 49f 44f
4:00 1.3ft 3s 13
mph
1020.6mb 49f 44f
3:00 0.3ft 2s 13 16 mph 1020.5mb 49f 44f
2:00 0.3ft 5s 4 7 mph 1020.5mb 48f 44f
1:00 0.3ft 5s  -  2 mph 1020.4mb 48f 44f
12:00 0.3ft 5s 4
mph
1020.5mb 48f 44f
lun 11/28 11:00 0.3ft 5s 4 7 mph 1020.1mb 48f 44f